createdAt,value
2019-03-25T00:05:12.828Z,83.50
2019-03-25T00:11:15.602Z,83.50
2019-03-25T00:17:18.714Z,82.60
2019-03-25T00:23:21.611Z,83.30
2019-03-25T00:29:24.443Z,83.30
2019-03-25T00:35:27.408Z,83.70
2019-03-25T00:41:30.326Z,83.80
2019-03-25T00:47:33.160Z,84.20
2019-03-25T00:53:36.092Z,83.10
2019-03-25T00:59:38.996Z,82.50
2019-03-25T01:05:42.163Z,92.00
2019-03-25T01:11:49.285Z,91.30
2019-03-25T01:17:49.534Z,90.90
2019-03-25T01:23:52.511Z,90.30
2019-03-25T01:29:55.379Z,90.00
2019-03-25T01:35:58.499Z,89.70
2019-03-25T01:42:01.379Z,89.70
2019-03-25T01:48:04.458Z,89.30
2019-03-25T01:54:07.283Z,89.40
2019-03-25T02:00:10.582Z,89.80
2019-03-25T02:06:13.395Z,90.00
2019-03-25T02:12:16.156Z,90.00
2019-03-25T02:18:19.076Z,90.00
2019-03-25T02:24:21.911Z,89.80
2019-03-25T02:30:24.783Z,90.00
2019-03-25T02:36:27.649Z,90.00
2019-03-25T02:42:30.456Z,89.60
2019-03-25T02:48:33.407Z,89.50
2019-03-25T02:54:36.270Z,89.90
2019-03-25T03:00:39.367Z,90.10
2019-03-25T03:06:42.306Z,90.50
2019-03-25T03:12:45.091Z,90.90
2019-03-25T03:18:48.115Z,90.90
2019-03-25T03:24:51.110Z,91.00
2019-03-25T03:30:54.065Z,91.00
2019-03-25T03:36:57.082Z,91.30
2019-03-25T03:42:59.938Z,91.40
2019-03-25T03:49:02.967Z,91.90
2019-03-25T03:55:06.002Z,92.00
2019-03-25T04:01:08.879Z,92.10
2019-03-25T04:07:11.810Z,92.60
2019-03-25T04:13:14.618Z,92.50
2019-03-25T04:19:17.482Z,92.70
2019-03-25T04:25:21.389Z,92.90
2019-03-25T04:31:24.416Z,92.30
2019-03-25T04:37:27.441Z,92.10
2019-03-25T04:43:30.324Z,92.10
2019-03-25T04:49:33.277Z,91.80
2019-03-25T04:55:36.290Z,92.00
2019-03-25T05:01:39.235Z,91.90
2019-03-25T05:07:42.223Z,91.90
2019-03-25T05:13:45.051Z,91.60
2019-03-25T05:19:48.085Z,91.50
2019-03-25T05:25:51.050Z,91.20
2019-03-25T05:31:53.964Z,91.10
2019-03-25T05:37:57.171Z,91.40
2019-03-25T05:44:00.249Z,91.60
2019-03-25T05:50:03.516Z,91.70
2019-03-25T05:56:06.480Z,91.80
2019-03-25T06:02:09.388Z,91.60
2019-03-25T06:08:12.283Z,91.60
2019-03-25T06:14:15.583Z,91.80
2019-03-25T06:20:18.937Z,91.90
2019-03-25T06:26:21.827Z,92.30
2019-03-25T06:32:24.750Z,92.10
2019-03-25T06:38:27.953Z,92.20
2019-03-25T06:44:31.422Z,92.10
2019-03-25T06:50:35.547Z,92.30
2019-03-25T06:56:38.403Z,92.50
2019-03-25T07:02:41.346Z,92.40
2019-03-25T07:08:44.314Z,92.10
2019-03-25T07:14:47.475Z,92.70
2019-03-25T07:20:50.465Z,92.60
2019-03-25T07:26:55.531Z,92.70
2019-03-25T07:32:57.922Z,91.90
2019-03-25T07:39:01.066Z,91.80
2019-03-25T07:45:04.184Z,91.60
2019-03-25T07:51:07.181Z,91.50
2019-03-25T07:57:11.716Z,91.40
2019-03-25T08:03:14.674Z,91.30
2019-03-25T08:09:17.504Z,91.10
2019-03-25T08:15:20.382Z,91.10
2019-03-25T08:21:25.026Z,90.70
2019-03-25T08:27:28.006Z,90.20
2019-03-25T08:33:30.921Z,90.00
2019-03-25T08:39:34.079Z,88.50
2019-03-25T08:45:36.999Z,85.40
2019-03-25T08:51:39.891Z,84.00
2019-03-25T08:57:42.859Z,81.60
2019-03-25T09:03:45.724Z,81.90
2019-03-25T09:09:49.381Z,81.70
2019-03-25T09:15:52.438Z,74.30
2019-03-25T09:21:55.415Z,66.50
2019-03-25T09:27:59.301Z,59.20
2019-03-25T09:34:02.120Z,53.70
2019-03-25T09:40:06.370Z,50.30
2019-03-25T09:46:10.443Z,48.80
2019-03-25T09:52:15.329Z,48.00
2019-03-25T09:58:18.423Z,48.50
2019-03-25T10:04:21.282Z,50.10
2019-03-25T10:10:24.192Z,50.00
2019-03-25T10:16:27.031Z,50.80
2019-03-25T10:22:30.411Z,49.80
2019-03-25T10:28:33.337Z,47.70
2019-03-25T10:34:36.287Z,50.50
2019-03-25T10:40:41.362Z,48.90
2019-03-25T10:46:44.259Z,48.80
2019-03-25T10:52:47.199Z,48.90
2019-03-25T10:58:57.813Z,49.90
2019-03-25T11:04:54.965Z,46.50
2019-03-25T11:10:58.038Z,45.10
2019-03-25T11:17:00.981Z,42.90
2019-03-25T11:23:04.049Z,43.70
2019-03-25T11:29:08.604Z,43.60
2019-03-25T11:35:12.015Z,43.70
2019-03-25T11:41:16.933Z,41.70
2019-03-25T11:47:19.856Z,43.60
2019-03-25T11:53:23.141Z,44.50
2019-03-25T11:59:28.133Z,44.80
2019-03-25T12:05:31.142Z,42.10
2019-03-25T12:11:34.060Z,44.10
2019-03-25T12:17:37.129Z,43.70
2019-03-25T12:23:40.007Z,45.90
2019-03-25T12:29:43.050Z,46.20
2019-03-25T12:35:46.055Z,46.00
2019-03-25T12:41:49.005Z,43.70
2019-03-25T12:47:51.983Z,43.50
2019-03-25T12:53:55.015Z,42.70
2019-03-25T12:59:58.042Z,42.00
2019-03-25T13:06:00.949Z,41.30
2019-03-25T13:12:04.298Z,41.60
2019-03-25T13:18:07.056Z,42.90
2019-03-25T13:24:09.882Z,43.10
2019-03-25T13:30:13.178Z,43.80
2019-03-25T13:36:16.014Z,46.60
2019-03-25T13:42:19.104Z,47.80
2019-03-25T13:48:22.113Z,49.30
2019-03-25T13:54:24.917Z,50.80
2019-03-25T14:00:52.920Z,51.50
2019-03-25T14:06:55.656Z,52.40
2019-03-25T14:12:58.505Z,51.10
2019-03-25T14:19:01.663Z,51.60
2019-03-25T14:25:05.587Z,50.40
2019-03-25T14:31:10.580Z,49.70
2019-03-25T14:37:13.655Z,49.00
2019-03-25T14:43:17.556Z,48.90
2019-03-25T14:49:20.415Z,48.10
2019-03-25T14:55:23.275Z,50.50
2019-03-25T15:01:27.399Z,53.50
2019-03-25T15:07:30.242Z,59.20
2019-03-25T15:13:35.949Z,82.30
2019-03-25T15:19:39.009Z,82.60
2019-03-25T15:25:55.393Z,88.00
2019-03-25T15:32:02.074Z,91.20
2019-03-25T15:38:09.885Z,84.60
2019-03-25T15:44:17.764Z,85.60
2019-03-25T15:50:26.666Z,84.80
2019-03-25T15:56:38.685Z,85.60
2019-03-25T16:02:45.295Z,84.10
2019-03-25T16:08:51.363Z,85.10
2019-03-25T16:14:57.103Z,87.60
2019-03-25T16:21:02.466Z,91.50
2019-03-25T16:27:06.973Z,92.60
2019-03-25T16:33:17.644Z,90.40
2019-03-25T16:39:23.558Z,90.70
2019-03-25T16:45:31.524Z,91.00
2019-03-25T16:51:35.984Z,90.60
2019-03-25T16:57:39.563Z,90.40
2019-03-25T17:03:42.697Z,90.70
2019-03-25T17:09:46.502Z,90.90
2019-03-25T17:15:53.899Z,91.10
2019-03-25T17:21:58.321Z,91.40
2019-03-25T17:28:03.511Z,91.00
2019-03-25T17:34:07.799Z,90.90
2019-03-25T17:40:10.974Z,90.90
2019-03-25T17:46:15.184Z,91.20
2019-03-25T17:52:18.085Z,91.30
2019-03-25T17:58:21.711Z,91.10
2019-03-25T18:04:24.705Z,90.60
2019-03-25T18:10:28.243Z,88.20
2019-03-25T18:16:31.504Z,87.80
2019-03-25T18:22:39.523Z,87.00
2019-03-25T18:28:39.387Z,87.30
2019-03-25T18:34:44.705Z,87.80
2019-03-25T18:40:47.621Z,89.00
2019-03-25T18:46:52.404Z,88.90
2019-03-25T18:52:56.909Z,88.50
2019-03-25T18:59:01.585Z,88.90
2019-03-25T19:05:05.025Z,89.20
2019-03-25T19:11:10.733Z,89.20
2019-03-25T19:17:13.807Z,88.50
2019-03-25T19:23:17.182Z,88.40
2019-03-25T19:29:20.280Z,88.40
2019-03-25T19:35:23.876Z,90.30
2019-03-25T19:41:32.527Z,90.00
2019-03-25T19:47:32.533Z,89.00
2019-03-25T19:53:35.860Z,89.10
2019-03-25T19:59:39.254Z,90.50
2019-03-25T20:05:42.233Z,90.90
2019-03-25T20:11:45.393Z,91.30
2019-03-25T20:17:50.788Z,91.60
2019-03-25T20:23:54.501Z,92.10
2019-03-25T20:29:57.523Z,92.10
2019-03-25T20:36:01.510Z,92.00
2019-03-25T20:42:04.447Z,91.80
2019-03-25T20:48:07.692Z,91.50
2019-03-25T20:54:10.921Z,90.60
2019-03-25T21:00:14.290Z,90.00
2019-03-25T21:06:20.490Z,88.90
2019-03-25T21:12:23.861Z,88.50
2019-03-25T21:18:26.880Z,88.80
2019-03-25T21:24:29.951Z,89.60
2019-03-25T21:30:47.020Z,89.70
2019-03-25T21:36:39.477Z,90.00
2019-03-25T21:42:42.500Z,90.10
2019-03-25T21:48:45.756Z,89.70
2019-03-25T21:54:51.851Z,89.20
2019-03-25T22:00:55.322Z,88.50
2019-03-25T22:06:58.224Z,88.50
2019-03-25T22:13:02.077Z,88.20
2019-03-25T22:19:05.360Z,88.10
2019-03-25T22:25:09.174Z,87.90
2019-03-25T22:31:12.485Z,87.90
2019-03-25T22:37:15.716Z,87.60
2019-03-25T22:43:18.625Z,87.80
2019-03-25T22:49:22.499Z,88.50
2019-03-25T22:55:25.557Z,88.20
2019-03-25T23:01:28.609Z,89.80
2019-03-25T23:07:31.405Z,89.90
2019-03-25T23:13:35.256Z,89.30
2019-03-25T23:19:38.802Z,89.40
2019-03-25T23:25:51.279Z,89.40
2019-03-25T23:31:54.145Z,89.00
2019-03-25T23:37:57.532Z,88.90
2019-03-25T23:44:00.382Z,89.50
2019-03-25T23:50:08.266Z,90.30
2019-03-25T23:56:11.034Z,91.10
